createdAt,value
2019-03-17T00:01:57.147Z,99.90
2019-03-17T00:04:30.629Z,99.90
2019-03-17T00:06:49.672Z,99.90
2019-03-17T00:09:18.834Z,99.90
2019-03-17T00:11:47.972Z,99.90
2019-03-17T00:14:17.136Z,99.90
2019-03-17T00:16:46.338Z,99.90
2019-03-17T00:19:15.634Z,99.90
2019-03-17T00:21:44.792Z,99.90
2019-03-17T00:24:14.004Z,99.90
2019-03-17T00:26:43.158Z,99.90
2019-03-17T00:29:12.408Z,99.90
2019-03-17T00:31:41.632Z,99.90
2019-03-17T00:34:10.861Z,99.90
2019-03-17T00:36:40.014Z,99.90
2019-03-17T00:39:09.151Z,99.90
2019-03-17T00:41:38.308Z,99.90
2019-03-17T00:44:07.467Z,99.90
2019-03-17T00:46:36.664Z,99.90
2019-03-17T00:49:05.870Z,99.90
2019-03-17T00:51:35.226Z,99.90
2019-03-17T00:54:04.732Z,99.90
2019-03-17T00:56:34.192Z,99.90
2019-03-17T00:59:03.522Z,99.90
2019-03-17T01:01:32.804Z,99.90
2019-03-17T01:04:02.116Z,99.90
2019-03-17T01:06:35.214Z,99.90
2019-03-17T01:09:05.338Z,99.90
2019-03-17T01:11:34.742Z,99.90
2019-03-17T01:14:04.210Z,99.90
2019-03-17T01:16:33.510Z,99.90
2019-03-17T01:19:02.776Z,99.90
2019-03-17T01:21:31.923Z,99.90
2019-03-17T01:24:01.228Z,99.90
2019-03-17T01:26:30.560Z,99.90
2019-03-17T01:28:59.912Z,99.90
2019-03-17T01:31:29.324Z,99.90
2019-03-17T01:33:58.729Z,99.90
2019-03-17T01:36:28.032Z,99.90
2019-03-17T01:38:57.453Z,99.90
2019-03-17T01:41:26.707Z,99.90
2019-03-17T01:43:56.380Z,99.90
2019-03-17T01:46:25.819Z,99.90
2019-03-17T01:48:57.193Z,99.90
2019-03-17T01:51:26.294Z,99.90
2019-03-17T01:53:55.834Z,99.90
2019-03-17T01:56:25.075Z,99.90
2019-03-17T01:58:54.391Z,99.90
2019-03-17T02:01:23.747Z,99.90
2019-03-17T02:03:52.987Z,99.90
2019-03-17T02:06:22.352Z,99.90
2019-03-17T02:08:51.630Z,99.90
2019-03-17T02:11:20.956Z,99.90
2019-03-17T02:13:50.178Z,99.90
2019-03-17T02:16:19.480Z,99.90
2019-03-17T02:18:48.795Z,99.90
2019-03-17T02:21:18.074Z,99.90
2019-03-17T02:23:47.417Z,99.90
2019-03-17T02:26:16.816Z,99.90
2019-03-17T02:28:46.196Z,99.90
2019-03-17T02:31:15.513Z,99.90
2019-03-17T02:33:45.052Z,99.90
2019-03-17T02:36:14.512Z,99.90
2019-03-17T02:38:43.729Z,99.90
2019-03-17T02:41:13.018Z,99.90
2019-03-17T02:43:44.089Z,99.90
2019-03-17T02:46:13.331Z,99.90
2019-03-17T02:48:42.552Z,99.90
2019-03-17T02:51:11.715Z,99.90
2019-03-17T02:53:40.927Z,99.90
2019-03-17T02:56:10.271Z,99.90
2019-03-17T02:58:39.491Z,99.90
2019-03-17T03:01:08.743Z,99.90
2019-03-17T03:03:37.924Z,99.90
2019-03-17T03:06:07.158Z,99.90
2019-03-17T03:08:36.402Z,99.90
2019-03-17T03:11:05.609Z,99.90
2019-03-17T03:13:34.769Z,99.90
2019-03-17T03:16:05.994Z,99.90
2019-03-17T03:18:34.896Z,99.90
2019-03-17T03:21:04.110Z,99.90
2019-03-17T03:23:33.338Z,99.90
2019-03-17T03:26:02.489Z,99.90
2019-03-17T03:28:31.654Z,99.90
2019-03-17T03:31:00.883Z,99.90
2019-03-17T03:33:30.123Z,99.90
2019-03-17T03:36:10.932Z,99.90
2019-03-17T03:38:30.327Z,99.90
2019-03-17T03:40:59.723Z,99.90
2019-03-17T03:43:28.852Z,99.90
2019-03-17T03:45:58.082Z,99.90
2019-03-17T03:48:27.217Z,99.90
2019-03-17T03:50:56.443Z,99.90
2019-03-17T03:53:25.748Z,99.90
2019-03-17T03:55:54.985Z,99.90
2019-03-17T03:58:24.139Z,99.90
2019-03-17T04:00:53.303Z,99.90
2019-03-17T04:03:22.433Z,99.90
2019-03-17T04:05:51.871Z,99.90
2019-03-17T04:08:21.210Z,99.90
2019-03-17T04:10:50.451Z,99.90
2019-03-17T04:13:19.734Z,99.90
2019-03-17T04:15:49.024Z,99.90
2019-03-17T04:18:18.261Z,99.90
2019-03-17T04:20:47.454Z,99.90
2019-03-17T04:23:16.615Z,99.90
2019-03-17T04:25:45.836Z,99.90
2019-03-17T04:28:14.994Z,99.90
2019-03-17T04:30:44.126Z,99.90
2019-03-17T04:33:13.361Z,99.90
2019-03-17T04:35:42.560Z,99.90
2019-03-17T04:38:11.720Z,99.90
2019-03-17T04:40:40.918Z,99.90
2019-03-17T04:43:10.111Z,99.90
2019-03-17T04:45:39.248Z,99.90
2019-03-17T04:48:08.422Z,99.90
2019-03-17T04:50:37.602Z,99.90
2019-03-17T04:53:06.846Z,99.90
2019-03-17T04:55:36.150Z,99.90
2019-03-17T04:58:05.374Z,99.90
2019-03-17T05:00:34.622Z,99.90
2019-03-17T05:03:03.841Z,99.90
2019-03-17T05:05:33.094Z,99.90
2019-03-17T05:08:02.344Z,99.90
2019-03-17T05:10:31.496Z,99.90
2019-03-17T05:13:00.711Z,99.90
2019-03-17T05:15:29.890Z,99.90
2019-03-17T05:17:59.131Z,99.90
2019-03-17T05:20:30.656Z,99.90
2019-03-17T05:22:59.895Z,99.90
2019-03-17T05:25:29.080Z,99.90
2019-03-17T05:27:58.203Z,99.90
2019-03-17T05:30:27.373Z,99.90
2019-03-17T05:32:56.545Z,99.90
2019-03-17T05:35:25.802Z,99.90
2019-03-17T05:37:55.083Z,99.90
2019-03-17T05:40:24.344Z,99.90
2019-03-17T05:42:53.605Z,99.90
2019-03-17T05:45:22.760Z,99.90
2019-03-17T05:47:52.072Z,99.90
2019-03-17T05:50:21.326Z,99.90
2019-03-17T05:52:50.573Z,99.90
2019-03-17T05:55:19.731Z,99.90
2019-03-17T05:57:49.046Z,99.90
2019-03-17T06:00:19.104Z,99.90
2019-03-17T06:02:48.423Z,99.90
2019-03-17T06:05:17.593Z,99.90
2019-03-17T06:07:46.759Z,99.90
2019-03-17T06:10:16.065Z,99.90
2019-03-17T06:12:45.325Z,99.90
2019-03-17T06:15:14.504Z,99.90
2019-03-17T06:17:43.638Z,99.90
2019-03-17T06:20:12.908Z,99.90
2019-03-17T06:22:42.053Z,99.90
2019-03-17T06:25:11.332Z,99.90
2019-03-17T06:27:40.539Z,99.90
2019-03-17T06:30:10.219Z,99.90
2019-03-17T06:32:39.421Z,99.90
2019-03-17T06:35:08.555Z,99.90
2019-03-17T06:37:37.751Z,99.90
2019-03-17T06:40:07.343Z,99.90
2019-03-17T06:42:36.623Z,99.90
2019-03-17T06:45:06.751Z,99.90
2019-03-17T06:47:35.908Z,99.90
2019-03-17T06:50:06.278Z,99.90
2019-03-17T06:52:35.523Z,99.90
2019-03-17T06:55:04.852Z,99.90
2019-03-17T06:57:34.083Z,99.90
2019-03-17T07:00:03.303Z,99.90
2019-03-17T07:02:32.461Z,99.90
2019-03-17T07:05:01.623Z,99.90
2019-03-17T07:07:42.939Z,99.90
2019-03-17T07:10:01.791Z,99.90
2019-03-17T07:12:31.022Z,99.90
2019-03-17T07:15:00.356Z,99.90
2019-03-17T07:17:30.951Z,99.90
2019-03-17T07:20:00.437Z,99.90
2019-03-17T07:22:29.763Z,99.90
2019-03-17T07:24:59.047Z,99.90
2019-03-17T07:27:28.275Z,99.90
2019-03-17T07:29:57.425Z,99.90
2019-03-17T07:32:26.595Z,99.90
2019-03-17T07:34:55.715Z,99.90
2019-03-17T07:37:24.951Z,99.90
2019-03-17T07:39:54.111Z,99.90
2019-03-17T07:42:23.291Z,99.90
2019-03-17T07:44:52.439Z,99.90
2019-03-17T07:47:21.833Z,99.90
2019-03-17T07:49:50.967Z,99.90
2019-03-17T07:52:20.119Z,99.90
2019-03-17T07:54:49.277Z,99.90
2019-03-17T07:57:18.423Z,99.90
2019-03-17T07:59:47.668Z,99.90
2019-03-17T08:02:16.911Z,99.90
2019-03-17T08:04:46.379Z,99.90
2019-03-17T08:07:15.675Z,99.10
2019-03-17T08:09:44.894Z,97.50
2019-03-17T08:12:14.057Z,96.20
2019-03-17T08:14:43.219Z,95.40
2019-03-17T08:17:12.469Z,95.60
2019-03-17T08:19:41.660Z,95.40
2019-03-17T08:22:10.889Z,95.50
2019-03-17T08:24:40.116Z,95.60
2019-03-17T08:27:09.279Z,95.70
2019-03-17T08:29:38.497Z,95.30
2019-03-17T08:32:07.670Z,96.50
2019-03-17T08:34:36.918Z,96.70
2019-03-17T08:37:06.083Z,97.10
2019-03-17T08:39:35.399Z,96.70
2019-03-17T08:42:04.815Z,96.20
2019-03-17T08:44:34.021Z,96.10
2019-03-17T08:47:03.222Z,96.10
2019-03-17T08:49:32.428Z,95.30
2019-03-17T08:52:01.637Z,94.50
2019-03-17T08:54:30.859Z,94.30
2019-03-17T08:57:00.083Z,93.90
2019-03-17T08:59:29.293Z,93.10
2019-03-17T09:01:58.492Z,92.60
2019-03-17T09:04:27.641Z,91.60
2019-03-17T09:06:56.842Z,91.70
2019-03-17T09:09:26.061Z,91.30
2019-03-17T09:11:55.307Z,90.60
2019-03-17T09:14:24.469Z,90.20
2019-03-17T09:16:53.630Z,85.30
2019-03-17T09:19:22.863Z,83.90
2019-03-17T09:21:52.076Z,82.40
2019-03-17T09:24:21.275Z,82.10
2019-03-17T09:26:50.424Z,82.00
2019-03-17T09:29:19.665Z,80.80
2019-03-17T09:31:48.805Z,78.30
2019-03-17T09:34:18.038Z,75.70
2019-03-17T09:36:47.212Z,73.50
2019-03-17T09:39:16.410Z,73.30
2019-03-17T09:41:45.548Z,66.80
2019-03-17T09:44:14.724Z,63.40
2019-03-17T09:46:43.902Z,63.90
2019-03-17T09:49:13.074Z,60.00
2019-03-17T09:51:42.222Z,58.40
2019-03-17T09:54:11.398Z,59.30
2019-03-17T09:56:40.661Z,57.70
2019-03-17T09:59:10.047Z,56.00
2019-03-17T10:01:39.205Z,56.10
2019-03-17T10:04:08.380Z,54.40
2019-03-17T10:06:37.543Z,55.80
2019-03-17T10:09:08.144Z,55.20
2019-03-17T10:11:37.355Z,53.50
2019-03-17T10:14:06.537Z,52.50
2019-03-17T10:16:35.791Z,53.00
2019-03-17T10:19:05.046Z,53.20
2019-03-17T10:21:34.216Z,51.40
2019-03-17T10:24:03.605Z,50.00
2019-03-17T10:26:33.799Z,48.90
2019-03-17T10:29:03.106Z,49.10
2019-03-17T10:31:32.447Z,49.50
2019-03-17T10:34:01.612Z,49.50
2019-03-17T10:36:30.878Z,49.90
2019-03-17T10:39:11.649Z,48.80
2019-03-17T10:41:30.940Z,46.40
2019-03-17T10:44:00.166Z,47.70
2019-03-17T10:46:29.408Z,46.40
2019-03-17T10:48:58.634Z,47.00
2019-03-17T10:51:27.937Z,47.50
2019-03-17T10:53:57.126Z,48.10
2019-03-17T10:56:26.411Z,47.80
2019-03-17T10:58:55.799Z,46.70
2019-03-17T11:01:25.237Z,47.10
2019-03-17T11:03:54.470Z,46.30
2019-03-17T11:06:23.737Z,45.90
2019-03-17T11:08:52.994Z,46.20
2019-03-17T11:11:22.302Z,47.10
2019-03-17T11:13:51.653Z,42.80
2019-03-17T11:16:21.003Z,42.40
2019-03-17T11:18:50.297Z,43.40
2019-03-17T11:21:19.537Z,43.00
2019-03-17T11:23:48.868Z,42.10
2019-03-17T11:26:18.180Z,42.60
2019-03-17T11:28:47.471Z,42.20
2019-03-17T11:31:16.831Z,41.40
2019-03-17T11:33:46.042Z,41.90
2019-03-17T11:36:15.369Z,41.80
2019-03-17T11:38:44.568Z,39.70
2019-03-17T11:41:13.841Z,39.60
2019-03-17T11:43:43.036Z,38.20
2019-03-17T11:46:12.278Z,38.40
2019-03-17T11:48:41.575Z,36.80
2019-03-17T11:51:10.780Z,35.00
2019-03-17T11:53:40.023Z,34.50
2019-03-17T11:56:09.219Z,35.10
2019-03-17T11:58:38.499Z,34.90
2019-03-17T12:01:07.937Z,34.70
2019-03-17T12:03:37.179Z,35.50
2019-03-17T12:06:06.501Z,36.60
2019-03-17T12:08:35.825Z,36.20
2019-03-17T12:11:05.321Z,34.40
2019-03-17T12:13:34.671Z,34.00
2019-03-17T12:16:05.062Z,35.00
2019-03-17T12:18:35.062Z,34.40
2019-03-17T12:21:04.223Z,34.60
2019-03-17T12:23:33.471Z,32.70
2019-03-17T12:26:02.879Z,33.10
2019-03-17T12:28:32.146Z,33.40
2019-03-17T12:31:02.033Z,33.80
2019-03-17T12:33:31.712Z,33.90
2019-03-17T12:36:00.966Z,34.40
2019-03-17T12:38:30.202Z,33.20
2019-03-17T12:40:59.392Z,33.10
2019-03-17T12:43:28.954Z,33.30
2019-03-17T12:45:58.145Z,32.70
2019-03-17T12:48:27.268Z,32.60
2019-03-17T12:50:56.490Z,31.40
2019-03-17T12:53:25.831Z,31.30
2019-03-17T12:55:55.097Z,31.20
2019-03-17T12:58:24.330Z,31.80
2019-03-17T13:00:53.505Z,31.10
2019-03-17T13:03:22.798Z,30.70
2019-03-17T13:05:52.207Z,31.50
2019-03-17T13:08:21.666Z,31.30
2019-03-17T13:10:51.124Z,32.20
2019-03-17T13:13:20.492Z,33.80
2019-03-17T13:15:49.898Z,34.80
2019-03-17T13:18:19.204Z,36.80
2019-03-17T13:20:48.675Z,37.40
2019-03-17T13:23:17.863Z,37.50
2019-03-17T13:25:47.048Z,37.50
2019-03-17T13:28:16.333Z,38.80
2019-03-17T13:30:46.074Z,37.80
2019-03-17T13:33:15.387Z,37.30
2019-03-17T13:35:44.690Z,37.80
2019-03-17T13:38:14.159Z,38.30
2019-03-17T13:40:43.502Z,37.90
2019-03-17T13:43:12.827Z,38.60
2019-03-17T13:45:42.022Z,39.60
2019-03-17T13:48:11.363Z,39.90
2019-03-17T13:50:40.841Z,40.30
2019-03-17T13:53:10.142Z,41.80
2019-03-17T13:55:39.463Z,41.90
2019-03-17T13:58:08.811Z,42.30
2019-03-17T14:00:38.114Z,42.50
2019-03-17T14:03:07.386Z,43.50
2019-03-17T14:05:36.578Z,43.50
2019-03-17T14:08:05.753Z,43.90
2019-03-17T14:10:40.912Z,43.70
2019-03-17T14:13:06.073Z,44.50
2019-03-17T14:15:35.303Z,44.50
2019-03-17T14:18:04.475Z,45.00
2019-03-17T14:20:33.728Z,45.40
2019-03-17T14:23:02.961Z,45.40
2019-03-17T14:25:32.203Z,46.20
2019-03-17T14:28:01.519Z,46.30
2019-03-17T14:30:30.756Z,46.50
2019-03-17T14:32:59.916Z,46.70
2019-03-17T14:35:29.267Z,47.60
2019-03-17T14:37:58.568Z,47.30
2019-03-17T14:40:27.927Z,47.50
2019-03-17T14:42:57.100Z,48.10
2019-03-17T14:45:26.336Z,48.00
2019-03-17T14:47:55.490Z,48.50
2019-03-17T14:50:24.696Z,49.00
2019-03-17T14:52:53.957Z,48.90
2019-03-17T14:55:23.177Z,49.00
2019-03-17T14:57:52.416Z,49.40
2019-03-17T15:00:21.663Z,48.60
2019-03-17T15:02:51.216Z,48.30
2019-03-17T15:05:20.351Z,48.90
2019-03-17T15:07:49.555Z,49.30
2019-03-17T15:10:19.119Z,48.70
2019-03-17T15:12:48.425Z,46.10
2019-03-17T15:15:18.100Z,45.40
2019-03-17T15:17:47.442Z,46.00
2019-03-17T15:20:17.691Z,47.10
2019-03-17T15:22:47.161Z,48.50
2019-03-17T15:25:16.539Z,49.50
2019-03-17T15:27:45.784Z,50.30
2019-03-17T15:30:17.236Z,51.20
2019-03-17T15:32:46.467Z,52.00
2019-03-17T15:35:15.749Z,52.70
2019-03-17T15:37:44.945Z,53.30
2019-03-17T15:40:14.410Z,53.50
2019-03-17T15:42:43.693Z,53.70
2019-03-17T15:45:14.309Z,54.00
2019-03-17T15:47:43.537Z,54.60
2019-03-17T15:50:14.231Z,55.00
2019-03-17T15:52:43.468Z,55.40
2019-03-17T15:55:13.026Z,55.50
2019-03-17T15:57:42.359Z,55.50
2019-03-17T16:00:24.006Z,56.20
2019-03-17T16:02:45.755Z,56.60
2019-03-17T16:05:15.082Z,57.10
2019-03-17T16:07:44.557Z,57.40
2019-03-17T16:10:14.866Z,58.00
2019-03-17T16:12:44.220Z,58.40
2019-03-17T16:15:13.997Z,58.70
2019-03-17T16:17:43.174Z,59.30
2019-03-17T16:20:15.027Z,59.70
2019-03-17T16:22:44.299Z,60.40
2019-03-17T16:25:14.325Z,60.90
2019-03-17T16:27:43.528Z,60.60
2019-03-17T16:30:18.125Z,62.20
2019-03-17T16:32:47.537Z,61.80
2019-03-17T16:35:16.799Z,62.30
2019-03-17T16:37:46.203Z,62.50
2019-03-17T16:40:17.232Z,63.20
2019-03-17T16:42:46.563Z,64.20
2019-03-17T16:45:16.498Z,65.20
2019-03-17T16:47:45.707Z,67.10
2019-03-17T16:50:15.960Z,68.70
2019-03-17T16:52:45.284Z,71.10
2019-03-17T16:55:14.876Z,73.40
2019-03-17T16:57:44.097Z,77.40
2019-03-17T17:00:18.741Z,83.50
2019-03-17T17:02:46.670Z,90.40
2019-03-17T17:05:16.080Z,97.40
2019-03-17T17:07:45.540Z,99.90
2019-03-17T17:10:15.795Z,99.90
2019-03-17T17:12:45.206Z,99.90
2019-03-17T17:15:22.525Z,99.90
2019-03-17T17:17:51.870Z,99.90
2019-03-17T17:20:23.314Z,99.90
2019-03-17T17:22:52.550Z,99.90
2019-03-17T17:25:21.839Z,99.90
2019-03-17T17:27:51.426Z,99.90
2019-03-17T17:30:20.714Z,99.90
2019-03-17T17:32:50.248Z,99.90
2019-03-17T17:35:19.703Z,99.90
2019-03-17T17:37:49.126Z,99.90
2019-03-17T17:40:18.564Z,99.90
2019-03-17T17:42:47.964Z,99.90
2019-03-17T17:45:17.439Z,99.90
2019-03-17T17:47:46.738Z,99.90
2019-03-17T17:50:16.926Z,99.90
2019-03-17T17:52:46.185Z,99.90
2019-03-17T17:55:15.468Z,99.90
2019-03-17T17:57:44.762Z,99.90
2019-03-17T18:00:17.359Z,99.90
2019-03-17T18:02:46.702Z,99.90
2019-03-17T18:05:16.048Z,99.90
2019-03-17T18:07:45.368Z,99.90
2019-03-17T18:10:14.656Z,99.90
2019-03-17T18:12:44.030Z,99.90
2019-03-17T18:15:14.908Z,99.90
2019-03-17T18:17:44.338Z,99.90
2019-03-17T18:20:13.722Z,99.90
2019-03-17T18:22:43.090Z,99.90
2019-03-17T18:25:13.386Z,99.90
2019-03-17T18:27:42.693Z,99.90
2019-03-17T18:30:14.013Z,99.90
2019-03-17T18:32:43.270Z,99.90
2019-03-17T18:35:12.613Z,99.90
2019-03-17T18:37:41.940Z,99.90
2019-03-17T18:40:12.522Z,99.90
2019-03-17T18:42:41.888Z,99.90
2019-03-17T18:45:13.384Z,99.90
2019-03-17T18:47:42.697Z,99.90
2019-03-17T18:50:20.166Z,99.90
2019-03-17T18:52:43.295Z,99.90
2019-03-17T18:55:12.881Z,99.90
2019-03-17T18:57:42.174Z,99.90
2019-03-17T19:00:14.094Z,99.90
2019-03-17T19:02:45.208Z,99.90
2019-03-17T19:05:19.236Z,99.90
2019-03-17T19:07:45.825Z,99.90
2019-03-17T19:10:15.253Z,99.90
2019-03-17T19:12:46.042Z,99.90
2019-03-17T19:15:15.711Z,99.90
2019-03-17T19:17:44.903Z,99.90
2019-03-17T19:20:15.080Z,99.90
2019-03-17T19:22:44.379Z,99.90
2019-03-17T19:25:14.542Z,99.90
2019-03-17T19:27:43.825Z,99.90
2019-03-17T19:30:14.646Z,99.90
2019-03-17T19:32:44.106Z,99.90
2019-03-17T19:35:13.467Z,99.90
2019-03-17T19:37:42.773Z,99.90
2019-03-17T19:40:12.993Z,99.90
2019-03-17T19:42:42.261Z,99.90
2019-03-17T19:45:11.583Z,99.90
2019-03-17T19:47:40.943Z,99.90
2019-03-17T19:50:11.060Z,99.90
2019-03-17T19:52:40.501Z,99.90
2019-03-17T19:55:11.099Z,99.90
2019-03-17T19:57:40.399Z,99.90
2019-03-17T20:00:11.727Z,99.90
2019-03-17T20:02:40.993Z,99.90
2019-03-17T20:05:10.307Z,99.90
2019-03-17T20:07:39.556Z,99.90
2019-03-17T20:10:11.282Z,99.90
2019-03-17T20:12:40.554Z,99.90
2019-03-17T20:15:09.836Z,99.90
2019-03-17T20:17:39.286Z,99.90
2019-03-17T20:20:09.484Z,99.90
2019-03-17T20:22:38.768Z,99.90
2019-03-17T20:25:08.480Z,99.90
2019-03-17T20:27:37.753Z,99.90
2019-03-17T20:30:07.462Z,99.90
2019-03-17T20:32:36.748Z,99.90
2019-03-17T20:35:07.599Z,99.90
2019-03-17T20:37:36.866Z,99.90
2019-03-17T20:40:06.927Z,99.90
2019-03-17T20:42:36.202Z,99.90
2019-03-17T20:45:05.966Z,99.90
2019-03-17T20:47:35.199Z,99.90
2019-03-17T20:50:04.969Z,99.90
2019-03-17T20:52:34.230Z,99.90
2019-03-17T20:55:03.551Z,99.90
2019-03-17T20:57:32.811Z,99.90
2019-03-17T21:00:02.142Z,99.90
2019-03-17T21:02:31.552Z,99.90
2019-03-17T21:05:00.744Z,99.90
2019-03-17T21:07:30.121Z,99.90
2019-03-17T21:09:59.478Z,99.90
2019-03-17T21:12:28.729Z,99.90
2019-03-17T21:14:58.604Z,99.90
2019-03-17T21:17:27.891Z,99.90
2019-03-17T21:19:57.150Z,99.90
2019-03-17T21:22:26.338Z,99.90
2019-03-17T21:24:55.591Z,99.90
2019-03-17T21:27:24.795Z,99.90
2019-03-17T21:29:54.085Z,99.90
2019-03-17T21:32:23.395Z,99.90
2019-03-17T21:34:52.675Z,99.90
2019-03-17T21:37:21.948Z,99.90
2019-03-17T21:39:51.208Z,99.90
2019-03-17T21:42:20.582Z,99.90
2019-03-17T21:44:49.845Z,99.90
2019-03-17T21:47:19.181Z,99.90
2019-03-17T21:49:48.460Z,99.90
2019-03-17T21:52:17.728Z,99.90
2019-03-17T21:54:47.024Z,99.90
2019-03-17T21:57:16.595Z,99.90
2019-03-17T21:59:45.858Z,99.90
2019-03-17T22:02:15.127Z,99.90
2019-03-17T22:04:44.443Z,99.90
2019-03-17T22:07:13.674Z,99.90
2019-03-17T22:09:42.923Z,99.90
2019-03-17T22:12:12.130Z,99.90
2019-03-17T22:14:41.348Z,99.90
2019-03-17T22:17:10.510Z,99.90
2019-03-17T22:19:39.765Z,99.90
2019-03-17T22:22:09.200Z,99.90
2019-03-17T22:24:38.508Z,99.90
2019-03-17T22:27:10.798Z,99.90
2019-03-17T22:29:39.977Z,99.90
2019-03-17T22:32:09.288Z,99.90
2019-03-17T22:34:38.500Z,99.90
2019-03-17T22:37:07.762Z,99.90
2019-03-17T22:39:36.952Z,99.90
2019-03-17T22:42:06.209Z,99.90
2019-03-17T22:44:35.515Z,99.90
2019-03-17T22:47:04.745Z,99.90
2019-03-17T22:49:33.951Z,99.90
2019-03-17T22:52:22.235Z,99.90
2019-03-17T22:54:51.490Z,99.90
2019-03-17T22:57:20.756Z,99.90
2019-03-17T22:59:50.074Z,99.90
2019-03-17T23:02:19.378Z,99.90
2019-03-17T23:04:48.634Z,99.90
2019-03-17T23:07:17.858Z,99.90
2019-03-17T23:09:47.091Z,99.90
2019-03-17T23:12:16.337Z,99.90
2019-03-17T23:14:45.588Z,99.90
2019-03-17T23:17:14.855Z,99.90
2019-03-17T23:19:44.188Z,99.90
2019-03-17T23:22:13.406Z,99.90
2019-03-17T23:24:42.669Z,99.90
2019-03-17T23:27:11.962Z,99.90
2019-03-17T23:29:41.120Z,99.90
2019-03-17T23:32:10.363Z,99.90
2019-03-17T23:34:39.622Z,99.90
2019-03-17T23:37:08.855Z,99.90
2019-03-17T23:39:38.079Z,99.90
2019-03-17T23:42:07.313Z,99.90
2019-03-17T23:44:48.274Z,99.90
2019-03-17T23:47:07.451Z,99.90
2019-03-17T23:49:36.671Z,99.90
2019-03-17T23:52:05.874Z,99.90
2019-03-17T23:54:35.165Z,99.90
2019-03-17T23:57:04.347Z,99.90
2019-03-17T23:59:33.559Z,99.90
